Time;durP1;ratioP1;P1;durP2;ratioP2;P2;SDS_P1;SDS_P2;PMS_P1;PMS_P2;Temp;Humidity;BMP_temperature;BMP_pressure;BME280_temperature;BME280_humidity;BME280_pressure;Samples;Min_cycle;Max_cycle;Signal;HPM_P1;HPM_P2
2022/03/29 00:03:30;;;;;;;;;;;;;;;;;;;;;
2022/03/29 00:06:42;;;;;;;;;;;;;;;;;;;;;
2022/03/29 00:10:06;;;;;;;;;;;;;;;;;;;;;
2022/03/29 00:13:49;;;;;;;18.37;8.93;;;6.60;99.90;;;;;;5011581;28;20500;-86
2022/03/29 00:17:22;;;;;;;;;;;;;;;;;;;;;
2022/03/29 00:24:42;;;;;;;;;;;;;;;;;;;;;
2022/03/29 00:27:56;;;;;;;;;;;;;;;;;;;;;
2022/03/29 00:31:13;;;;;;;13.57;7.53;;;6.60;99.90;;;;;;5037556;28;20493;-86
2022/03/29 00:34:42;;;;;;;;;;;;;;;;;;;;;
2022/03/29 00:37:47;;;;;;;20.02;9.00;;;6.90;99.90;;;;;;5033816;28;20084;-85
2022/03/29 00:41:17;;;;;;;20.00;10.52;;;6.60;99.90;;;;;;5032597;28;20041;-84
2022/03/29 00:44:46;;;;;;;;;;;;;;;;;;;;;
2022/03/29 00:47:53;;;;;;;23.58;10.32;;;6.50;99.90;;;;;;5040880;28;20406;-86
2022/03/29 00:51:23;;;;;;;17.88;9.88;;;6.60;99.90;;;;;;5038366;28;20523;-85
2022/03/29 00:54:46;;;;;;;17.48;9.07;;;6.60;99.90;;;;;;5032693;28;20041;-87
2022/03/29 00:57:53;;;;;;;16.80;8.57;;;6.60;99.90;;;;;;5032412;28;20124;-83
2022/03/29 01:01:16;;;;;;;20.52;9.02;;;6.50;99.90;;;;;;5061020;28;20079;-85
2022/03/29 01:08:25;;;;;;;15.07;8.07;;;6.50;99.90;;;;;;5072854;28;20047;-87
2022/03/29 01:11:37;;;;;;;17.63;8.63;;;6.50;99.90;;;;;;5072662;28;20050;-86
2022/03/29 01:14:56;;;;;;;18.83;8.68;;;6.50;99.90;;;;;;5072037;28;20056;-86
2022/03/29 01:18:11;;;;;;;21.80;10.05;;;6.50;99.90;;;;;;5071935;28;20040;-87
2022/03/29 01:21:28;;;;;;;;;;;;;;;;;;;;;
2022/03/29 01:24:50;;;;;;;;;;;;;;;;;;;;;
2022/03/29 01:28:20;;;;;;;;;;;;;;;;;;;;;
2022/03/29 01:31:09;;;;;;;;;;;6.40;99.90;;;;;;5079637;28;20123;-85
2022/03/29 01:34:14;;;;;;;;;;;;;;;;;;;;;
2022/03/29 01:37:37;;;;;;;12.18;6.18;;;6.40;99.90;;;;;;5052159;28;20089;-86
2022/03/29 01:41:06;;;;;;;;;;;;;;;;;;;;;
2022/03/29 01:43:59;;;;;;;18.25;8.43;;;6.40;99.90;;;;;;5071789;28;20093;-87
2022/03/29 01:47:05;;;;;;;14.30;7.43;;;6.40;99.90;;;;;;5061205;28;20078;-85
2022/03/29 01:53:46;;;;;;;17.60;8.27;;;6.40;99.90;;;;;;5072541;28;20113;-86
2022/03/29 01:56:56;;;;;;;20.48;8.85;;;7.30;99.90;;;;;;5058902;28;20091;-86
2022/03/29 02:03:39;;;;;;;22.80;10.57;;;6.40;99.90;;;;;;5070903;28;20045;-83
2022/03/29 02:06:58;;;;;;;;;;;;;;;;;;;;;
2022/03/29 02:10:10;;;;;;;20.15;9.23;;;6.50;99.90;;;;;;5071716;28;20047;-83
2022/03/29 02:16:48;;;;;;;;;;;;;;;;;;;;;
2022/03/29 02:19:58;;;;;;;20.23;9.23;;;6.40;99.90;;;;;;5075992;28;20453;-83
2022/03/29 02:23:34;;;;;;;21.35;10.48;;;6.40;99.90;;;;;;5074394;28;20254;-83
2022/03/29 02:26:50;;;;;;;23.75;11.23;;;6.40;99.90;;;;;;5074555;28;20068;-84
2022/03/29 02:29:55;;;;;;;25.60;12.23;;;6.60;99.90;;;;;;5073873;28;20127;-86
2022/03/29 02:33:18;;;;;;;;;;;;;;;;;;;;;
2022/03/29 02:47:24;;;;;;;;;;;6.40;99.90;;;;;;5074526;28;20411;-86
2022/03/29 02:50:58;;;;;;;;;;;;;;;;;;;;;
2022/03/29 02:54:22;;;;;;;;;;;;;;;;;;;;;
2022/03/29 02:57:46;;;;;;;;;;;;;;;;;;;;;
2022/03/29 03:01:30;;;;;;;;;;;;;;;;;;;;;
2022/03/29 03:12:39;;;;;;;20.85;10.25;;;6.40;99.90;;;;;;4991866;28;20068;-86
2022/03/29 03:15:54;;;;;;;16.80;8.43;;;6.40;99.90;;;;;;4989402;28;20058;-84
2022/03/29 03:19:10;;;;;;;18.10;8.40;;;6.30;99.90;;;;;;4989358;28;20065;-86
2022/03/29 03:22:38;;;;;;;;;;;;;;;;;;;;;
2022/03/29 03:25:56;;;;;;;16.63;8.30;;;6.40;99.90;;;;;;4987386;28;20489;-86
2022/03/29 03:29:23;;;;;;;16.23;6.97;;;6.40;99.90;;;;;;4990505;28;20436;-85
2022/03/29 03:36:33;;;;;;;;;;;;;;;;;;;;;
2022/03/29 03:39:51;;;;;;;13.98;6.95;;;6.30;99.90;;;;;;4961062;28;20054;-86
2022/03/29 03:43:08;;;;;;;;;;;;;;;;;;;;;
2022/03/29 03:46:22;;;;;;;;;;;;;;;;;;;;;
2022/03/29 03:49:42;;;;;;;;;;;;;;;;;;;;;
2022/03/29 03:52:42;;;;;;;20.30;8.65;;;6.40;99.90;;;;;;5001576;28;20053;-86
2022/03/29 03:59:49;;;;;;;19.30;9.60;;;6.40;99.90;;;;;;5029870;28;20056;-86
2022/03/29 04:03:24;;;;;;;18.35;8.80;;;6.40;99.90;;;;;;5025491;28;20292;-87
2022/03/29 04:06:40;;;;;;;;;;;;;;;;;;;;;
2022/03/29 04:10:14;;;;;;;;;;;;;;;;;;;;;
2022/03/29 04:13:33;;;;;;;25.67;11.63;;;6.40;99.90;;;;;;5046997;28;20052;-85
2022/03/29 04:16:34;;;;;;;21.42;11.13;;;6.40;99.90;;;;;;5044038;28;20055;-87
2022/03/29 04:27:06;;;;;;;;;;;;;;;;;;;;;
2022/03/29 04:30:50;;;;;;;20.75;9.18;;;6.40;99.90;;;;;;5052670;28;20041;-85
2022/03/29 04:34:06;;;;;;;;;;;;;;;;;;;;;
2022/03/29 04:37:24;;;;;;;;;;;;;;;;;;;;;
2022/03/29 04:40:56;;;;;;;15.45;7.90;;;6.10;99.90;;;;;;5059891;28;20048;-85
2022/03/29 04:44:14;;;;;;;19.02;8.13;;;6.40;99.90;;;;;;5058269;28;20398;-85
2022/03/29 04:47:26;;;;;;;16.63;7.85;;;6.40;99.90;;;;;;5052610;28;20087;-85
2022/03/29 04:50:13;;;;;;;17.08;7.57;;;6.40;99.90;;;;;;5052354;28;20075;-86
2022/03/29 04:53:23;;;;;;;18.98;9.07;;;6.40;99.90;;;;;;5053069;28;20044;-85
2022/03/29 04:56:27;;;;;;;;;;;;;;;;;;;;;
2022/03/29 04:59:38;;;;;;;;;;;;;;;;;;;;;
2022/03/29 05:02:44;;;;;;;15.70;7.88;;;6.30;99.90;;;;;;5041521;28;20102;-86
2022/03/29 05:06:00;;;;;;;21.10;8.40;;;6.40;99.90;;;;;;5052103;28;20048;-86
2022/03/29 05:09:41;;;;;;;15.68;7.40;;;6.40;99.90;;;;;;5033894;28;20099;-86
2022/03/29 05:13:06;;;;;;;15.15;7.38;;;6.40;99.90;;;;;;5011777;28;20048;-86
2022/03/29 05:16:25;;;;;;;15.63;7.57;;;6.30;99.90;;;;;;5056568;28;20407;-85
2022/03/29 05:19:38;;;;;;;19.05;8.43;;;6.20;99.90;;;;;;5052126;28;20045;-83
2022/03/29 05:23:12;;;;;;;;;;;;;;;;;;;;;
2022/03/29 05:26:26;;;;;;;16.15;8.32;;;6.70;99.90;;;;;;5031305;28;20049;-85
2022/03/29 05:29:29;;;;;;;;;;;;;;;;;;;;;
2022/03/29 05:32:31;;;;;;;;;;;;;;;;;;;;;
2022/03/29 05:35:33;;;;;;;;;;;;;;;;;;;;;
2022/03/29 05:38:48;;;;;;;;;;;;;;;;;;;;;
2022/03/29 05:41:47;;;;;;;19.60;9.48;;;6.40;99.90;;;;;;5051414;28;20533;-86
2022/03/29 05:44:57;;;;;;;14.98;7.85;;;6.40;99.90;;;;;;5055929;28;20048;-86
2022/03/29 05:51:31;;;;;;;;;;;;;;;;;;;;;
2022/03/29 05:54:37;;;;;;;17.70;8.77;;;7.10;99.90;;;;;;5054631;28;20049;-85
2022/03/29 05:57:32;;;;;;;19.73;8.45;;;6.50;99.90;;;;;;5038313;28;20056;-85
2022/03/29 06:00:35;;;;;;;;;;;;;;;;;;;;;
2022/03/29 06:03:37;;;;;;;17.42;8.20;;;6.50;99.90;;;;;;5060280;28;20067;-85
2022/03/29 06:06:50;;;;;;;22.05;10.50;;;6.50;99.90;;;;;;5057143;28;20051;-86
2022/03/29 06:09:59;;;;;;;19.75;9.40;;;6.50;99.90;;;;;;5069288;28;20430;-86
2022/03/29 06:12:59;;;;;;;20.85;9.45;;;6.50;99.90;;;;;;5052150;28;20061;-85
2022/03/29 06:15:38;;;;;;;17.83;8.77;;;6.60;99.90;;;;;;5053814;28;20114;-85
2022/03/29 06:18:24;;;;;;;18.95;8.48;;;6.60;99.90;;;;;;5045765;28;20491;-85
2022/03/29 06:21:23;;;;;;;;;;;;;;;;;;;;;
2022/03/29 06:24:39;;;;;;;20.42;9.10;;;6.60;99.90;;;;;;5054976;28;20037;-86
2022/03/29 06:27:49;;;;;;;;;;;;;;;;;;;;;
2022/03/29 06:34:23;;;;;;;21.30;10.48;;;6.70;99.90;;;;;;5052798;28;20551;-85
2022/03/29 06:36:58;;;;;;;18.02;8.68;;;6.80;99.90;;;;;;5053216;28;20099;-87
2022/03/29 06:39:54;;;;;;;19.98;8.95;;;6.80;99.90;;;;;;5054550;28;20037;-87
2022/03/29 06:42:54;;;;;;;;;;;;;;;;;;;;;
2022/03/29 06:46:20;;;;;;;;;;;;;;;;;;;;;
2022/03/29 06:49:23;;;;;;;22.45;11.38;;;7.50;99.90;;;;;;5020119;28;20055;-87
2022/03/29 06:56:07;;;;;;;19.75;10.70;;;6.90;99.90;;;;;;5014333;28;20057;-86
2022/03/29 06:59:29;;;;;;;;;;;;;;;;;;;;;
2022/03/29 07:02:54;;;;;;;;;;;;;;;;;;;;;
2022/03/29 07:06:35;;;;;;;25.15;12.13;;;7.10;99.90;;;;;;5004604;28;20055;-86
2022/03/29 07:13:30;;;;;;;20.55;10.45;;;7.30;99.90;;;;;;4954138;28;20406;-87
2022/03/29 07:16:32;;;;;;;16.05;8.75;;;7.30;99.90;;;;;;4950673;28;20055;-87
2022/03/29 07:19:23;;;;;;;25.58;13.00;;;7.30;99.90;;;;;;4972660;28;20054;-87
2022/03/29 07:22:25;;;;;;;19.33;8.68;;;7.40;99.90;;;;;;4914763;29;20407;-87
2022/03/29 07:25:35;;;;;;;;;;;;;;;;;;;;;
2022/03/29 07:28:38;;;;;;;;;;;;;;;;;;;;;
2022/03/29 07:39:30;;;;;;;23.95;9.52;;;7.70;99.90;;;;;;4958900;28;20048;-86
2022/03/29 07:51:12;;;;;;;;;;;;;;;;;;;;;
2022/03/29 08:22:33;;;;;;;16.13;6.75;;;8.00;99.90;;;;;;5001949;28;20483;-83
2022/03/29 08:50:21;;;;;;;16.58;6.55;;;8.30;99.90;;;;;;4959180;28;20046;-84
2022/03/29 08:58:23;;;;;;;;;;;;;;;;;;;;;
2022/03/29 09:15:44;;;;;;;15.07;4.63;;;8.70;99.90;;;;;;4582299;27;15691251;-84
2022/03/29 09:19:09;;;;;;;10.47;3.50;;;8.90;99.90;;;;;;5107072;28;20502;-86
2022/03/29 09:22:04;;;;;;;11.95;4.75;;;8.90;99.90;;;;;;5083542;28;20494;-84
2022/03/29 09:24:35;;;;;;;12.77;4.05;;;9.00;99.90;;;;;;5102941;28;20039;-83
2022/03/29 09:27:11;;;;;;;10.95;3.90;;;9.00;99.90;;;;;;5121357;28;20405;-86
2022/03/29 09:29:40;;;;;;;15.90;4.38;;;9.00;99.90;;;;;;5090917;28;20036;-84
2022/03/29 09:32:17;;;;;;;13.70;3.67;;;9.10;99.90;;;;;;5083356;28;20055;-85
2022/03/29 09:35:04;;;;;;;12.65;3.85;;;9.20;99.90;;;;;;5093738;28;20047;-82
2022/03/29 09:37:54;;;;;;;9.68;3.20;;;9.30;99.90;;;;;;5117030;28;20039;-85
2022/03/29 09:40:39;;;;;;;11.10;3.40;;;9.40;99.90;;;;;;5083514;28;20052;-86
2022/03/29 09:43:10;;;;;;;14.40;3.75;;;9.50;99.90;;;;;;5091617;28;20093;-85
2022/03/29 09:45:50;;;;;;;16.73;4.05;;;9.70;99.90;;;;;;5099530;28;20039;-86
2022/03/29 09:48:22;;;;;;;22.02;5.07;;;9.70;99.90;;;;;;5092954;28;20039;-85
2022/03/29 09:50:53;;;;;;;11.45;2.95;;;9.80;99.90;;;;;;5109614;28;20043;-81
2022/03/29 09:53:38;;;;;;;14.32;3.97;;;9.80;99.90;;;;;;5120713;28;20135;-83
2022/03/29 09:56:07;;;;;;;11.45;3.28;;;9.70;99.90;;;;;;5117429;28;20039;-82
2022/03/29 09:58:34;;;;;;;15.85;3.67;;;9.60;99.90;;;;;;5099273;28;20100;-83
2022/03/29 10:01:03;;;;;;;12.38;3.70;;;9.70;99.90;;;;;;5116850;28;20046;-83
2022/03/29 10:03:38;;;;;;;12.70;3.47;;;9.70;99.90;;;;;;5112366;28;20136;-85
2022/03/29 10:06:20;;;;;;;8.50;2.92;;;9.70;99.90;;;;;;5114768;28;20070;-83
2022/03/29 10:12:06;;;;;;;10.13;3.35;;;9.70;99.90;;;;;;5116413;28;20105;-83
2022/03/29 10:14:46;;;;;;;13.77;2.85;;;9.70;99.90;;;;;;5106939;27;20514;-83
2022/03/29 10:17:17;;;;;;;8.27;2.50;;;9.60;99.90;;;;;;5105869;28;20068;-82
2022/03/29 10:20:06;;;;;;;9.10;3.38;;;9.50;99.90;;;;;;5103420;28;20511;-83
2022/03/29 10:23:18;;;;;;;12.90;2.97;;;9.70;99.90;;;;;;5089692;28;20040;-83
2022/03/29 10:30:09;;;;;;;;;;;;;;;;;;;;;
2022/03/29 10:33:29;;;;;;;;;;;;;;;;;;;;;
2022/03/29 10:36:27;;;;;;;11.80;3.30;;;9.90;99.90;;;;;;5084385;28;20127;-84
2022/03/29 10:39:10;;;;;;;12.13;3.45;;;9.90;99.90;;;;;;5068257;28;20051;-84
2022/03/29 10:45:37;;;;;;;11.48;3.90;;;10.00;99.90;;;;;;5075623;28;20032;-84
2022/03/29 10:48:28;;;;;;;11.75;3.10;;;10.00;99.90;;;;;;5088563;28;20071;-83
2022/03/29 10:51:48;;;;;;;11.43;3.70;;;10.10;99.90;;;;;;5087836;28;20047;-85
2022/03/29 10:55:11;;;;;;;14.50;3.47;;;10.10;99.90;;;;;;5083858;28;20040;-84
2022/03/29 10:58:20;;;;;;;13.82;3.20;;;10.10;99.90;;;;;;5091794;28;20133;-83
2022/03/29 11:01:15;;;;;;;14.75;3.90;;;10.10;99.90;;;;;;5076477;28;20045;-86
2022/03/29 11:04:15;;;;;;;7.18;2.38;;;10.00;99.90;;;;;;5077469;23;20556;-84
2022/03/29 11:14:52;;;;;;;12.65;3.33;;;10.30;99.90;;;;;;5046998;28;20035;-81
2022/03/29 11:18:12;;;;;;;17.55;4.22;;;10.30;99.90;;;;;;4987742;28;20050;-82
2022/03/29 11:21:11;;;;;;;10.40;3.55;;;10.30;99.90;;;;;;4990930;28;20243;-82
2022/03/29 11:24:21;;;;;;;9.73;3.58;;;10.40;99.90;;;;;;4975461;28;20054;-81
2022/03/29 11:27:19;;;;;;;12.98;4.20;;;10.40;99.90;;;;;;4988169;28;20053;-84
2022/03/29 11:30:11;;;;;;;12.32;4.45;;;10.40;99.90;;;;;;4988731;28;20054;-81
2022/03/29 11:33:18;;;;;;;13.48;3.92;;;10.40;99.90;;;;;;4984982;28;20104;-83
2022/03/29 11:39:57;;;;;;;9.52;3.85;;;10.30;99.90;;;;;;4991318;28;20524;-82
2022/03/29 11:43:22;;;;;;;;;;;;;;;;;;;;;
2022/03/29 11:46:26;;;;;;;18.90;4.45;;;10.30;99.90;;;;;;4990313;28;20089;-82
2022/03/29 11:49:26;;;;;;;11.27;3.92;;;10.40;99.90;;;;;;4952946;28;20540;-82
2022/03/29 11:52:38;;;;;;;15.88;4.60;;;10.30;99.90;;;;;;4991278;28;20045;-88
2022/03/29 12:08:03;;;;;;;16.55;5.63;;;10.20;99.90;;;;;;5013618;28;20211;-87
2022/03/29 12:11:22;;;;;;;;;;;;;;;;;;;;;
2022/03/29 12:14:36;;;;;;;13.25;5.07;;;10.30;99.90;;;;;;5037585;28;20040;-81
2022/03/29 12:17:47;;;;;;;;;;;;;;;;;;;;;
2022/03/29 12:24:37;;;;;;;14.27;5.45;;;10.40;99.90;;;;;;5043150;28;20130;-84
2022/03/29 12:27:39;;;;;;;14.27;4.78;;;10.40;99.90;;;;;;5050230;28;20045;-83
2022/03/29 12:34:24;;;;;;;;;;;;;;;;;;;;;
2022/03/29 12:37:34;;;;;;;16.73;6.30;;;10.50;99.90;;;;;;5042268;28;20040;-84
2022/03/29 12:40:44;;;;;;;15.15;5.93;;;10.70;99.90;;;;;;5025883;28;20080;-85
2022/03/29 12:43:43;;;;;;;17.25;6.05;;;10.90;99.90;;;;;;5034993;28;20094;-82
2022/03/29 12:46:40;;;;;;;13.25;6.20;;;10.90;99.90;;;;;;5034616;28;20078;-85
2022/03/29 12:49:46;;;;;;;14.57;5.30;;;11.00;99.90;;;;;;5037437;28;20045;-84
2022/03/29 12:53:02;;;;;;;;;;;;;;;;;;;;;
2022/03/29 12:56:09;;;;;;;11.77;5.22;;;11.10;99.90;;;;;;5038799;28;20037;-84
2022/03/29 12:59:34;;;;;;;;;;;;;;;;;;;;;
2022/03/29 13:02:47;;;;;;;13.25;5.38;;;10.70;99.90;;;;;;5046607;28;20068;-84
2022/03/29 13:05:53;;;;;;;14.23;5.22;;;10.70;99.90;;;;;;5050521;28;20049;-85
2022/03/29 13:09:02;;;;;;;;;;;;;;;;;;;;;
2022/03/29 13:15:54;;;;;;;14.02;4.30;;;11.00;99.90;;;;;;5047274;28;20483;-84
2022/03/29 13:19:24;;;;;;;11.82;5.15;;;10.90;99.90;;;;;;5038563;28;20434;-87
2022/03/29 13:22:54;;;;;;;11.05;4.38;;;10.90;99.90;;;;;;5035210;28;20084;-86
2022/03/29 13:25:43;;;;;;;12.23;4.25;;;11.00;99.90;;;;;;5022661;28;20049;-86
2022/03/29 13:28:42;;;;;;;9.75;4.90;;;11.40;99.90;;;;;;5029581;28;20085;-85
2022/03/29 13:31:20;;;;;;;10.43;4.03;;;11.70;99.90;;;;;;5011088;28;20424;-82
2022/03/29 13:33:59;;;;;;;9.52;4.32;;;11.90;99.90;;;;;;5005775;28;20046;-86
2022/03/29 13:36:30;;;;;;;10.25;3.90;;;12.00;99.90;;;;;;5008431;28;20057;-85
2022/03/29 13:38:58;;;;;;;12.32;4.80;;;12.10;99.90;;;;;;5028853;28;20045;-85
2022/03/29 13:41:29;;;;;;;13.27;4.90;;;12.30;99.90;;;;;;5028329;28;20046;-81
2022/03/29 13:44:00;;;;;;;9.07;3.83;;;12.20;99.90;;;;;;5029032;28;20049;-86
2022/03/29 13:46:33;;;;;;;15.35;4.47;;;12.30;99.90;;;;;;5026738;28;20095;-83
2022/03/29 13:49:01;;;;;;;14.10;4.00;;;12.20;99.90;;;;;;4990819;28;20118;-85
2022/03/29 13:51:29;;;;;;;18.08;3.80;;;12.20;99.90;;;;;;5031096;28;20049;-83
2022/03/29 13:53:57;;;;;;;13.43;3.97;;;12.10;99.90;;;;;;5008887;28;20076;-81
2022/03/29 13:56:31;;;;;;;11.23;4.32;;;11.70;99.90;;;;;;5021292;28;20054;-83
2022/03/29 13:59:25;;;;;;;8.02;3.60;;;11.80;99.90;;;;;;5020883;28;20042;-85
2022/03/29 14:01:53;;;;;;;16.88;5.05;;;11.60;99.90;;;;;;5028929;28;20053;-85
2022/03/29 14:04:28;;;;;;;11.63;5.05;;;11.40;99.90;;;;;;5051185;28;20136;-84
2022/03/29 14:07:00;;;;;;;18.27;6.03;;;11.40;99.90;;;;;;5053972;28;20037;-86
2022/03/29 14:09:27;;;;;;;10.90;5.18;;;11.70;99.90;;;;;;5051244;28;20076;-84
2022/03/29 14:11:59;;;;;;;13.90;5.78;;;11.50;99.90;;;;;;5038400;28;20036;-83
2022/03/29 14:14:29;;;;;;;10.65;4.45;;;11.80;99.90;;;;;;5052718;28;20048;-84
2022/03/29 14:17:08;;;;;;;13.40;5.10;;;12.10;99.90;;;;;;5047964;28;20043;-84
2022/03/29 14:19:51;;;;;;;14.95;5.20;;;12.40;99.90;;;;;;5043477;28;20049;-83
2022/03/29 14:22:20;;;;;;;11.33;4.63;;;12.60;99.90;;;;;;5042530;28;20037;-83
2022/03/29 14:24:47;;;;;;;15.27;4.90;;;12.60;99.90;;;;;;5051964;28;20063;-83
2022/03/29 14:27:25;;;;;;;13.18;4.78;;;12.60;99.90;;;;;;5051459;28;20396;-83
2022/03/29 14:30:06;;;;;;;13.45;4.68;;;13.00;99.90;;;;;;5046645;28;20120;-84
2022/03/29 14:32:40;;;;;;;14.65;4.75;;;13.00;99.90;;;;;;5052981;28;20048;-83
2022/03/29 14:35:11;;;;;;;16.77;5.72;;;12.90;99.90;;;;;;5047696;28;20129;-83
2022/03/29 14:37:47;;;;;;;16.90;5.00;;;12.60;99.90;;;;;;5050554;28;20856;-83
2022/03/29 14:40:30;;;;;;;12.88;4.65;;;12.20;99.90;;;;;;5052255;28;20048;-84
2022/03/29 14:43:05;;;;;;;10.57;4.32;;;12.00;99.90;;;;;;5038656;28;20048;-84
2022/03/29 14:45:43;;;;;;;11.75;4.10;;;11.80;99.90;;;;;;5051268;28;20049;-84
2022/03/29 14:48:20;;;;;;;13.05;4.43;;;11.60;99.90;;;;;;5052191;28;20041;-84
2022/03/29 14:50:55;;;;;;;11.32;4.68;;;11.40;99.90;;;;;;5046836;28;20048;-84
2022/03/29 14:53:49;;;;;;;11.93;4.32;;;11.30;99.90;;;;;;5041247;28;20041;-85
2022/03/29 14:56:27;;;;;;;15.18;5.13;;;11.20;99.90;;;;;;5029935;28;20041;-85
2022/03/29 14:59:08;;;;;;;11.35;4.43;;;11.20;99.90;;;;;;5038590;28;20048;-84
2022/03/29 15:01:37;;;;;;;10.82;4.15;;;10.90;99.90;;;;;;5052213;28;20480;-83
2022/03/29 15:04:13;;;;;;;12.25;4.40;;;10.90;99.90;;;;;;5052822;28;20041;-84
2022/03/29 15:06:42;;;;;;;8.65;4.72;;;10.80;99.90;;;;;;5044625;28;20577;-82
2022/03/29 15:09:44;;;;;;;11.80;4.90;;;11.00;99.90;;;;;;5033386;28;20045;-84
2022/03/29 15:12:14;;;;;;;12.85;4.72;;;10.80;99.90;;;;;;5042383;28;20048;-83
2022/03/29 15:15:00;;;;;;;10.98;3.88;;;10.90;99.90;;;;;;5028205;28;20049;-83
2022/03/29 15:17:38;;;;;;;13.10;4.63;;;10.80;99.90;;;;;;5052017;28;20487;-84
2022/03/29 15:20:06;;;;;;;11.63;4.30;;;10.70;99.90;;;;;;5044363;28;20049;-83
2022/03/29 15:22:56;;;;;;;12.23;4.35;;;10.60;99.90;;;;;;5048947;28;20052;-84
2022/03/29 15:25:28;;;;;;;9.35;4.03;;;10.40;99.90;;;;;;5052415;28;20045;-84
2022/03/29 15:28:07;;;;;;;10.75;4.10;;;10.30;99.90;;;;;;5051534;28;20053;-85
2022/03/29 15:30:47;;;;;;;15.77;5.45;;;10.40;99.90;;;;;;5045393;28;20505;-85
2022/03/29 15:33:19;;;;;;;;;;;10.40;99.90;;;;;;5044513;28;20037;-85
2022/03/29 15:36:04;;;;;;;12.98;4.07;;;10.30;99.90;;;;;;5051209;28;20015;-84
2022/03/29 15:38:42;;;;;;;13.18;4.00;;;10.30;99.90;;;;;;5039054;28;20075;-84
2022/03/29 15:41:15;;;;;;;12.82;4.45;;;10.10;99.90;;;;;;5049307;28;20243;-83
2022/03/29 15:43:47;;;;;;;14.88;5.63;;;10.10;99.90;;;;;;5050664;28;20124;-83
2022/03/29 15:46:33;;;;;;;14.32;4.38;;;10.00;99.90;;;;;;5037395;28;20032;-85
2022/03/29 15:49:32;;;;;;;;;;;;;;;;;;;;;
2022/03/29 15:52:49;;;;;;;;;;;;;;;;;;;;;
2022/03/29 15:55:49;;;;;;;15.05;5.25;;;9.90;99.90;;;;;;5037200;28;20041;-84
2022/03/29 15:59:00;;;;;;;15.32;4.75;;;9.90;99.90;;;;;;5038345;28;20041;-85
2022/03/29 16:02:00;;;;;;;16.20;4.38;;;9.70;99.90;;;;;;5036339;28;20095;-85
2022/03/29 16:04:42;;;;;;;11.43;5.05;;;9.70;99.90;;;;;;5036010;28;20410;-83
2022/03/29 16:07:53;;;;;;;9.88;3.90;;;9.70;99.90;;;;;;5040661;28;20041;-84
2022/03/29 16:14:14;;;;;;;;;;;;;;;;;;;;;
2022/03/29 16:17:25;;;;;;;;;;;;;;;;;;;;;
2022/03/29 16:20:18;;;;;;;15.65;3.90;;;9.70;99.90;;;;;;5041826;28;20053;-83
2022/03/29 16:23:10;;;;;;;13.20;5.05;;;9.60;99.90;;;;;;5049925;28;20033;-83
2022/03/29 16:26:19;;;;;;;13.07;4.57;;;9.60;99.90;;;;;;5040907;28;20045;-84
2022/03/29 16:29:16;;;;;;;10.85;4.20;;;9.50;99.90;;;;;;5037530;28;20076;-83
2022/03/29 16:32:07;;;;;;;17.90;4.18;;;9.40;99.90;;;;;;5044415;28;20065;-83
2022/03/29 16:35:04;;;;;;;12.70;4.10;;;9.30;99.90;;;;;;5049811;28;20052;-82
2022/03/29 16:38:02;;;;;;;11.18;4.47;;;9.20;99.90;;;;;;5035011;28;20091;-84
2022/03/29 16:41:02;;;;;;;10.60;4.18;;;9.00;99.90;;;;;;5035962;28;20036;-83
2022/03/29 16:44:03;;;;;;;12.77;4.40;;;9.10;99.90;;;;;;5046555;28;20049;-86
2022/03/29 16:47:03;;;;;;;14.32;4.10;;;9.00;99.90;;;;;;5041775;28;20041;-86
2022/03/29 16:50:01;;;;;;;12.15;4.10;;;8.90;99.90;;;;;;5041633;28;20572;-87
2022/03/29 16:53:09;;;;;;;7.88;3.53;;;8.80;99.90;;;;;;5050712;28;20036;-83
2022/03/29 16:56:16;;;;;;;;;;;;;;;;;;;;;
2022/03/29 16:59:32;;;;;;;;;;;;;;;;;;;;;
2022/03/29 17:02:50;;;;;;;14.47;5.30;;;8.60;99.90;;;;;;5047237;28;20048;-84
2022/03/29 17:05:56;;;;;;;14.73;4.45;;;8.50;99.90;;;;;;5041228;28;20790;-85
2022/03/29 17:08:54;;;;;;;11.75;3.83;;;8.40;99.90;;;;;;5043683;28;20053;-86
2022/03/29 17:11:39;;;;;;;13.05;4.18;;;8.30;99.90;;;;;;5033994;28;20381;-85
2022/03/29 17:14:16;;;;;;;8.68;3.78;;;8.20;99.90;;;;;;5040576;28;20057;-85
2022/03/29 17:17:22;;;;;;;;;;;;;;;;;;;;;
2022/03/29 17:20:22;;;;;;;11.27;3.78;;;8.10;99.90;;;;;;5052294;28;20124;-84
2022/03/29 17:23:14;;;;;;;10.32;4.10;;;8.00;99.90;;;;;;5052006;28;20506;-84
2022/03/29 17:26:19;;;;;;;;;;;;;;;;;;;;;
2022/03/29 17:29:21;;;;;;;11.30;3.75;;;7.90;99.90;;;;;;5041865;28;20049;-83
2022/03/29 17:32:02;;;;;;;9.05;4.38;;;8.00;99.90;;;;;;5050127;28;20048;-83
2022/03/29 17:53:26;;;;;;;9.05;3.78;;;7.40;99.90;;;;;;5039667;28;20068;-84
2022/03/29 17:56:27;;;;;;;11.30;3.67;;;7.30;99.90;;;;;;5040010;28;20136;-85
2022/03/29 17:59:32;;;;;;;10.90;5.15;;;7.30;99.90;;;;;;5053320;28;20503;-85
2022/03/29 18:02:28;;;;;;;10.38;4.18;;;7.20;99.90;;;;;;5039872;28;20041;-85
2022/03/29 18:08:51;;;;;;;9.88;4.22;;;7.10;99.90;;;;;;5042178;28;20037;-83
2022/03/29 18:12:06;;;;;;;17.58;4.25;;;7.00;99.90;;;;;;5043324;28;20565;-85
2022/03/29 18:15:14;;;;;;;;;;;;;;;;;;;;;
2022/03/29 18:18:25;;;;;;;12.77;4.80;;;6.80;99.90;;;;;;5054164;28;20052;-85
2022/03/29 18:21:22;;;;;;;9.73;4.65;;;6.60;99.90;;;;;;5047994;28;20044;-85
2022/03/29 18:24:30;;;;;;;7.63;3.60;;;6.50;99.90;;;;;;5040705;28;20361;-85
2022/03/29 18:27:37;;;;;;;15.85;4.93;;;6.40;99.90;;;;;;5039146;28;20049;-84
2022/03/29 18:30:24;;;;;;;11.10;5.13;;;6.30;99.90;;;;;;5038759;28;20473;-84
2022/03/29 18:33:33;;;;;;;14.85;4.05;;;6.30;99.90;;;;;;5048336;28;20048;-88
2022/03/29 18:36:37;;;;;;;8.82;3.88;;;6.20;99.90;;;;;;5048544;28;20053;-90
2022/03/29 18:39:29;;;;;;;13.20;4.70;;;6.10;99.90;;;;;;5042118;28;20428;-88
2022/03/29 18:41:56;;;;;;;14.38;3.97;;;6.00;99.90;;;;;;5047630;28;20045;-84
2022/03/29 18:44:23;;;;;;;9.93;3.97;;;6.00;99.90;;;;;;5040572;28;20041;-88
2022/03/29 18:46:49;;;;;;;11.20;4.13;;;6.00;99.90;;;;;;5046432;28;20048;-84
2022/03/29 18:49:16;;;;;;;8.30;3.88;;;6.00;99.90;;;;;;5054070;28;20052;-88
2022/03/29 18:51:43;;;;;;;10.55;4.40;;;6.50;99.90;;;;;;5042000;28;20049;-83
2022/03/29 18:54:14;;;;;;;9.10;4.10;;;6.10;99.90;;;;;;5054030;28;20041;-87
2022/03/29 18:56:42;;;;;;;8.88;3.70;;;6.10;99.90;;;;;;5045261;28;20041;-86
2022/03/29 18:59:20;;;;;;;7.10;4.07;;;6.10;99.90;;;;;;5048605;28;20042;-84
2022/03/29 19:01:49;;;;;;;8.85;3.60;;;6.10;99.90;;;;;;5052444;28;20391;-84
2022/03/29 19:04:27;;;;;;;9.18;4.38;;;6.10;99.90;;;;;;5053911;28;20056;-82
2022/03/29 19:07:03;;;;;;;12.05;4.28;;;6.10;99.90;;;;;;5041722;28;20065;-87
2022/03/29 19:09:35;;;;;;;9.75;4.00;;;6.10;99.90;;;;;;5043666;28;20042;-85
2022/03/29 19:12:18;;;;;;;9.77;3.83;;;6.00;99.90;;;;;;5037996;28;20044;-84
2022/03/29 19:14:45;;;;;;;10.52;4.38;;;6.00;99.90;;;;;;5052642;28;20127;-83
2022/03/29 19:17:24;;;;;;;9.02;3.80;;;6.00;99.90;;;;;;5053321;28;20048;-86
2022/03/29 19:19:55;;;;;;;10.73;3.17;;;6.00;99.90;;;;;;5052086;28;20041;-85
2022/03/29 19:22:25;;;;;;;9.57;4.18;;;6.00;99.90;;;;;;5051775;28;20124;-88
2022/03/29 19:24:54;;;;;;;9.52;4.53;;;5.90;99.90;;;;;;5049732;28;20120;-85
2022/03/29 19:27:47;;;;;;;12.55;3.97;;;5.90;99.90;;;;;;5053194;28;20041;-86
2022/03/29 19:30:29;;;;;;;11.98;4.35;;;5.90;99.90;;;;;;5039643;28;20045;-90
2022/03/29 19:33:05;;;;;;;11.32;3.95;;;5.80;99.90;;;;;;5044264;28;20036;-87
2022/03/29 19:35:39;;;;;;;12.27;5.40;;;5.80;99.90;;;;;;5051835;28;20487;-85
2022/03/29 19:38:05;;;;;;;16.58;6.57;;;5.80;99.90;;;;;;5036525;28;20411;-86
2022/03/29 19:40:39;;;;;;;13.70;5.95;;;5.80;99.90;;;;;;5068031;28;20115;-86
2022/03/29 19:43:43;;;;;;;14.13;6.00;;;5.80;99.90;;;;;;5048197;28;20045;-91
2022/03/29 19:46:29;;;;;;;11.52;5.07;;;5.80;99.90;;;;;;5037071;28;20498;-87
2022/03/29 19:49:02;;;;;;;12.35;4.47;;;5.70;99.90;;;;;;5050679;28;20041;-86
2022/03/29 19:51:34;;;;;;;11.32;4.75;;;5.70;99.90;;;;;;5050749;28;20041;-81
2022/03/29 19:54:41;;;;;;;11.10;4.00;;;5.60;99.90;;;;;;5027244;28;20053;-81
2022/03/29 19:57:45;;;;;;;12.13;3.75;;;5.50;99.90;;;;;;5051812;28;20057;-83
2022/03/29 20:00:49;;;;;;;10.77;4.05;;;5.40;99.90;;;;;;5042536;28;20555;-81
2022/03/29 20:03:49;;;;;;;10.75;4.18;;;5.40;99.90;;;;;;5044436;28;20376;-82
2022/03/29 20:06:47;;;;;;;13.05;4.25;;;5.30;99.90;;;;;;5044189;28;20128;-87
2022/03/29 20:13:48;;;;;;;7.57;3.63;;;5.30;99.90;;;;;;5034275;28;20056;-83
2022/03/29 20:16:19;;;;;;;12.40;5.13;;;5.40;99.90;;;;;;5044622;28;20053;-80
2022/03/29 20:19:18;;;;;;;10.98;5.07;;;5.40;99.90;;;;;;5041040;28;20124;-82
2022/03/29 20:22:35;;;;;;;9.98;4.78;;;5.40;99.90;;;;;;5050364;28;20033;-89
2022/03/29 20:25:31;;;;;;;;;;;;;;;;;;;;;
2022/03/29 20:28:25;;;;;;;8.57;4.22;;;5.40;99.90;;;;;;5040767;28;20033;-89
2022/03/29 20:31:49;;;;;;;;;;;;;;;;;;;;;
2022/03/29 20:35:17;;;;;;;9.13;3.75;;;5.40;99.90;;;;;;5048628;28;20052;-83
2022/03/29 20:38:26;;;;;;;7.72;3.08;;;5.40;99.90;;;;;;5038633;28;20052;-89
2022/03/29 20:41:45;;;;;;;7.35;3.78;;;5.40;99.90;;;;;;5038890;28;20052;-88
2022/03/29 20:45:11;;;;;;;8.75;3.85;;;5.40;99.90;;;;;;5041452;28;20045;-86
2022/03/29 20:48:50;;;;;;;;;;;;;;;;;;;;;
2022/03/29 20:55:36;;;;;;;;;;;;;;;;;;;;;
2022/03/29 20:59:01;;;;;;;10.05;4.50;;;5.50;99.90;;;;;;4880757;29;20051;-85
2022/03/29 21:02:15;;;;;;;11.57;4.97;;;5.50;99.90;;;;;;4930660;29;20044;-85
2022/03/29 21:05:36;;;;;;;9.82;4.00;;;5.60;99.90;;;;;;4931524;29;20063;-83